Time;durP1;ratioP1;P1;durP2;ratioP2;P2;SDS_P1;SDS_P2;PMS_P1;PMS_P2;Temp;Humidity;BMP_temperature;BMP_pressure;BME280_temperature;BME280_humidity;BME280_pressure;Samples;Min_cycle;Max_cycle;Signal;HPM_P1;HPM_P2
2023/06/20 00:00:33;;;;;;;9.67;8.17;;;16.90;99.90;;;;;;2103665;28;20226;-67
2023/06/20 00:01:34;;;;;;;9.37;8.23;;;16.90;99.90;;;;;;2100050;28;20318;-67
2023/06/20 00:02:35;;;;;;;9.70;8.70;;;16.90;99.90;;;;;;2097997;28;20248;-67
2023/06/20 00:03:35;;;;;;;11.73;9.10;;;17.00;99.90;;;;;;2097718;28;21004;-67
2023/06/20 00:04:36;;;;;;;12.83;9.43;;;17.00;99.90;;;;;;2101208;28;20223;-69
2023/06/20 00:05:37;;;;;;;13.73;10.43;;;17.10;99.90;;;;;;2098054;28;20250;-67
2023/06/20 00:06:37;;;;;;;17.17;11.23;;;17.10;99.90;;;;;;2101720;28;20391;-67
2023/06/20 00:07:38;;;;;;;12.93;9.20;;;17.30;99.90;;;;;;2098528;28;20285;-68
2023/06/20 00:08:40;;;;;;;16.33;12.00;;;17.40;99.90;;;;;;2100622;28;20651;-67
2023/06/20 00:09:42;;;;;;;17.60;11.93;;;17.50;99.90;;;;;;2087228;28;20548;-67
2023/06/20 00:10:43;;;;;;;12.27;10.40;;;17.60;99.90;;;;;;2098438;28;20478;-67
2023/06/20 00:11:43;;;;;;;14.63;11.40;;;17.60;99.90;;;;;;2103585;28;20498;-67
2023/06/20 00:12:44;;;;;;;13.93;11.70;;;17.60;99.90;;;;;;2091568;28;20890;-67
2023/06/20 00:13:45;;;;;;;13.13;9.90;;;17.60;99.90;;;;;;2090637;28;20235;-67
2023/06/20 00:14:46;;;;;;;12.77;10.40;;;17.60;99.90;;;;;;2090894;28;20215;-67
2023/06/20 00:15:48;;;;;;;11.00;9.33;;;17.60;99.90;;;;;;2099283;28;20723;-67
2023/06/20 00:16:48;;;;;;;11.80;10.13;;;17.60;99.90;;;;;;2099267;28;20470;-67
2023/06/20 00:17:49;;;;;;;12.67;10.53;;;17.60;99.90;;;;;;2091127;28;20468;-67
2023/06/20 00:18:56;;;;;;;10.57;9.27;;;17.60;99.90;;;;;;2090397;28;20246;-67
2023/06/20 00:19:57;;;;;;;11.67;9.50;;;17.60;99.90;;;;;;2100773;28;20237;-68
2023/06/20 00:20:58;;;;;;;11.60;9.57;;;17.60;99.90;;;;;;2111767;28;20553;-67
2023/06/20 00:22:02;;;;;;;9.73;8.23;;;17.60;99.90;;;;;;2100081;28;20696;-68
2023/06/20 00:23:03;;;;;;;10.10;8.23;;;17.60;99.90;;;;;;2101923;28;20236;-67
2023/06/20 00:24:09;;;;;;;9.07;7.83;;;17.50;99.90;;;;;;2088857;28;20475;-67
2023/06/20 00:25:10;;;;;;;11.70;8.90;;;17.50;99.90;;;;;;2098654;28;20194;-67
2023/06/20 00:26:11;;;;;;;12.47;9.80;;;17.40;99.90;;;;;;2095334;28;20424;-67
2023/06/20 00:27:11;;;;;;;10.90;9.47;;;17.40;99.90;;;;;;2094479;28;20198;-66
2023/06/20 00:28:21;;;;;;;10.77;8.60;;;17.40;99.90;;;;;;2094540;28;20627;-67
2023/06/20 00:29:22;;;;;;;11.77;8.40;;;17.40;99.90;;;;;;2100000;28;20230;-67
2023/06/20 00:30:23;;;;;;;12.67;9.03;;;17.30;99.90;;;;;;2097269;28;20463;-67
2023/06/20 00:31:23;;;;;;;13.17;8.63;;;17.30;99.90;;;;;;2103559;28;20555;-67
2023/06/20 00:32:24;;;;;;;11.77;9.00;;;17.30;99.90;;;;;;2103930;28;20226;-67
2023/06/20 00:33:25;;;;;;;10.73;9.47;;;17.30;99.90;;;;;;2107478;28;20589;-68
2023/06/20 00:34:27;;;;;;;11.50;9.53;;;17.30;99.90;;;;;;2099147;28;20475;-67
2023/06/20 00:35:27;;;;;;;14.33;11.23;;;17.40;99.90;;;;;;2103305;28;20630;-68
2023/06/20 00:36:28;;;;;;;9.87;8.87;;;17.30;99.90;;;;;;2100431;28;20559;-67
2023/06/20 00:37:30;;;;;;;13.80;10.10;;;17.40;99.90;;;;;;2101628;28;20243;-67
2023/06/20 00:38:31;;;;;;;14.33;9.70;;;17.30;99.90;;;;;;2099393;28;20246;-67
2023/06/20 00:39:32;;;;;;;12.27;10.40;;;17.40;99.90;;;;;;2099247;28;20503;-67
2023/06/20 00:40:32;;;;;;;10.73;9.13;;;17.40;99.90;;;;;;2099049;28;20231;-67
2023/06/20 00:41:33;;;;;;;11.70;9.07;;;17.50;99.90;;;;;;2099370;28;20282;-67
2023/06/20 00:42:35;;;;;;;12.90;9.67;;;17.50;99.90;;;;;;2099103;28;20284;-67
2023/06/20 00:43:35;;;;;;;15.10;10.23;;;17.50;99.90;;;;;;2099094;28;20219;-67
2023/06/20 00:44:36;;;;;;;12.23;9.93;;;17.50;99.90;;;;;;2099956;28;20475;-67
2023/06/20 00:45:37;;;;;;;13.17;9.03;;;17.60;99.90;;;;;;2100082;28;20227;-70
2023/06/20 00:46:40;;;;;;;24.23;13.97;;;17.70;99.90;;;;;;2099143;28;20345;-67
2023/06/20 00:47:41;;;;;;;17.03;11.77;;;17.70;99.90;;;;;;2084017;28;20224;-67
2023/06/20 00:48:42;;;;;;;22.47;14.10;;;17.70;99.90;;;;;;2090907;28;20565;-67
2023/06/20 00:49:48;;;;;;;16.73;11.60;;;17.80;99.90;;;;;;2098696;28;20266;-67
2023/06/20 00:50:53;;;;;;;14.03;9.93;;;17.80;99.90;;;;;;2090753;28;20502;-67
2023/06/20 00:51:53;;;;;;;13.43;9.87;;;17.80;99.90;;;;;;2083873;28;20464;-66
2023/06/20 00:53:05;;;;;;;13.97;10.50;;;17.70;99.90;;;;;;2099437;28;20498;-68
2023/06/20 00:54:06;;;;;;;26.17;14.77;;;17.70;99.90;;;;;;2089481;28;20215;-67
2023/06/20 00:55:07;;;;;;;22.23;13.60;;;17.70;99.90;;;;;;2095087;28;20463;-67
2023/06/20 00:56:12;;;;;;;16.97;11.00;;;17.70;99.90;;;;;;2102507;28;20191;-68
2023/06/20 00:57:19;;;;;;;21.50;12.93;;;17.80;99.90;;;;;;2090897;28;20195;-68
2023/06/20 00:58:20;;;;;;;17.97;12.97;;;17.80;99.90;;;;;;2092192;28;20490;-67
2023/06/20 00:59:20;;;;;;;20.53;13.67;;;17.80;99.90;;;;;;2095538;28;20460;-67
2023/06/20 01:00:23;;;;;;;20.97;13.43;;;17.80;99.90;;;;;;2100583;28;20231;-67
2023/06/20 01:01:25;;;;;;;23.00;12.70;;;17.70;99.90;;;;;;2100836;28;20223;-67
2023/06/20 01:02:26;;;;;;;18.77;12.63;;;17.70;99.90;;;;;;2100899;28;20837;-68
2023/06/20 01:03:28;;;;;;;13.63;10.40;;;17.70;99.90;;;;;;2101231;28;20517;-67
2023/06/20 01:04:29;;;;;;;17.70;11.63;;;17.60;99.90;;;;;;2100453;28;20475;-67
2023/06/20 01:05:31;;;;;;;17.03;12.63;;;17.60;99.90;;;;;;2092558;28;21122;-67
2023/06/20 01:06:42;;;;;;;13.97;10.43;;;17.50;99.90;;;;;;2100932;28;20474;-67
2023/06/20 01:07:50;;;;;;;13.30;10.70;;;17.50;99.90;;;;;;2101049;28;20463;-67
2023/06/20 01:09:21;;;;;;;13.97;10.53;;;17.50;99.90;;;;;;2093597;28;20480;-67
2023/06/20 01:10:34;;;;;;;25.50;15.13;;;17.40;99.90;;;;;;2101532;28;20494;-67
2023/06/20 01:12:27;;;;;;;13.07;9.97;;;17.50;99.90;;;;;;2101541;28;21090;-67
2023/06/20 01:13:36;;;;;;;16.60;11.10;;;17.40;99.90;;;;;;2085636;28;20980;-66
2023/06/20 01:15:47;;;;;;;15.43;9.77;;;17.40;99.90;;;;;;2102171;28;20551;-66
2023/06/20 01:17:00;;;;;;;11.70;8.80;;;17.30;99.90;;;;;;2067363;28;20569;-67
2023/06/20 01:18:18;;;;;;;12.20;8.97;;;17.20;99.90;;;;;;2068389;28;20532;-67
2023/06/20 01:19:53;;;;;;;10.67;8.13;;;17.10;99.90;;;;;;2069041;28;20467;-67
2023/06/20 01:21:12;;;;;;;12.23;9.33;;;17.10;99.90;;;;;;2068084;28;20481;-67
2023/06/20 01:23:19;;;;;;;12.30;9.90;;;17.10;99.90;;;;;;2078907;28;20526;-68
2023/06/20 01:24:48;;;;;;;12.80;10.03;;;17.00;99.90;;;;;;2070309;28;20498;-67
2023/06/20 01:26:28;;;;;;;15.17;10.23;;;17.00;99.90;;;;;;2063956;28;20506;-67
2023/06/20 01:27:36;;;;;;;14.30;9.27;;;17.00;99.90;;;;;;2096294;28;20456;-66
2023/06/20 01:29:04;;;;;;;13.73;9.63;;;17.00;99.90;;;;;;2092835;28;20480;-67
2023/06/20 01:30:21;;;;;;;13.60;9.67;;;16.80;99.90;;;;;;2091365;28;20483;-67
2023/06/20 01:31:31;;;;;;;12.27;9.23;;;16.80;99.90;;;;;;2105076;28;21388;-66
2023/06/20 01:32:36;;;;;;;12.33;9.13;;;16.60;99.90;;;;;;2099835;28;20464;-67
2023/06/20 01:33:55;;;;;;;17.50;10.10;;;16.60;99.90;;;;;;2080153;28;20532;-67
2023/06/20 01:35:11;;;;;;;11.67;9.67;;;16.60;99.90;;;;;;2089129;28;20465;-66
2023/06/20 01:36:17;;;;;;;14.10;9.60;;;16.50;99.90;;;;;;2103787;28;20534;-66
2023/06/20 01:37:21;;;;;;;14.17;10.13;;;16.60;99.90;;;;;;2104968;28;20463;-68
2023/06/20 01:38:25;;;;;;;12.63;9.57;;;16.60;99.90;;;;;;2096486;28;20468;-68
2023/06/20 01:39:32;;;;;;;13.40;10.33;;;16.70;99.90;;;;;;2096437;28;21037;-68
2023/06/20 01:40:35;;;;;;;12.83;9.50;;;16.70;99.90;;;;;;2096899;28;20498;-67
2023/06/20 01:41:42;;;;;;;13.20;9.53;;;16.70;99.90;;;;;;2096940;28;20550;-68
2023/06/20 01:42:44;;;;;;;12.97;9.63;;;16.70;99.90;;;;;;2104078;28;21004;-68
2023/06/20 01:43:48;;;;;;;11.63;9.33;;;16.60;99.90;;;;;;2104405;28;20993;-68
2023/06/20 01:44:51;;;;;;;13.30;9.70;;;16.60;99.90;;;;;;2096423;28;20468;-68
2023/06/20 01:45:53;;;;;;;11.50;9.13;;;16.50;99.90;;;;;;2087023;28;20464;-68
2023/06/20 01:46:56;;;;;;;13.77;10.17;;;16.50;99.90;;;;;;2091981;28;20544;-68
2023/06/20 01:48:00;;;;;;;13.53;9.80;;;16.40;99.90;;;;;;2088224;28;20975;-70
2023/06/20 01:49:02;;;;;;;13.67;9.87;;;16.40;99.90;;;;;;2088387;28;20469;-68
2023/06/20 01:50:05;;;;;;;11.63;9.63;;;16.40;99.90;;;;;;2088254;28;20421;-68
2023/06/20 01:51:06;;;;;;;12.77;8.93;;;16.40;99.90;;;;;;2094486;28;20462;-68
2023/06/20 01:52:10;;;;;;;13.10;9.33;;;16.30;99.90;;;;;;2088024;28;20472;-68
2023/06/20 01:53:12;;;;;;;12.27;9.87;;;16.30;99.90;;;;;;2088110;28;20222;-68
2023/06/20 01:54:14;;;;;;;15.53;10.40;;;16.30;99.90;;;;;;2089443;28;20475;-68
2023/06/20 01:55:20;;;;;;;12.80;9.90;;;16.30;99.90;;;;;;2087786;28;20463;-68
2023/06/20 01:56:23;;;;;;;14.50;9.80;;;16.30;99.90;;;;;;2104932;28;20517;-71
2023/06/20 01:57:26;;;;;;;16.70;10.43;;;16.30;99.90;;;;;;2099496;28;20472;-67
2023/06/20 01:58:27;;;;;;;15.63;9.93;;;16.40;99.90;;;;;;2090360;28;20461;-68
2023/06/20 01:59:29;;;;;;;13.83;10.23;;;16.40;99.90;;;;;;2102839;28;20467;-68
2023/06/20 02:00:31;;;;;;;12.67;9.40;;;16.50;99.90;;;;;;2100504;28;20923;-69
2023/06/20 02:01:33;;;;;;;12.97;9.37;;;16.50;99.90;;;;;;2100245;28;20542;-68
2023/06/20 02:02:35;;;;;;;12.43;10.33;;;16.50;99.90;;;;;;2095688;28;21316;-68
2023/06/20 02:03:36;;;;;;;11.40;9.20;;;16.60;99.90;;;;;;2088256;28;20540;-68
2023/06/20 02:04:38;;;;;;;11.77;9.70;;;16.60;99.90;;;;;;2087769;28;20551;-68
2023/06/20 02:05:41;;;;;;;11.40;9.30;;;16.60;99.90;;;;;;2095859;28;20472;-68
2023/06/20 02:06:44;;;;;;;11.13;8.43;;;16.60;99.90;;;;;;2087985;28;20519;-68
2023/06/20 02:07:46;;;;;;;9.67;8.00;;;16.70;99.90;;;;;;2083475;28;20469;-69
2023/06/20 02:08:50;;;;;;;12.77;8.83;;;16.70;99.90;;;;;;2080669;28;20640;-68
2023/06/20 02:09:52;;;;;;;12.90;8.93;;;16.70;99.90;;;;;;2096554;28;21023;-68
2023/06/20 02:10:54;;;;;;;10.50;8.10;;;16.70;99.90;;;;;;2103203;28;20471;-67
2023/06/20 02:11:56;;;;;;;12.10;9.03;;;16.70;99.90;;;;;;2104135;28;20471;-67
2023/06/20 02:12:58;;;;;;;9.17;7.73;;;16.70;99.90;;;;;;2101388;28;20523;-69
2023/06/20 02:14:00;;;;;;;12.57;8.60;;;16.70;99.90;;;;;;2090238;28;20461;-67
2023/06/20 02:15:03;;;;;;;12.43;9.30;;;16.70;99.90;;;;;;2101525;28;20514;-67
2023/06/20 02:16:08;;;;;;;9.90;8.33;;;16.70;99.90;;;;;;2098780;28;20436;-68
2023/06/20 02:17:12;;;;;;;12.47;9.10;;;16.70;99.90;;;;;;2104206;28;20423;-68
2023/06/20 02:18:13;;;;;;;18.03;10.77;;;16.70;99.90;;;;;;2099817;28;20431;-68
2023/06/20 02:19:14;;;;;;;12.47;9.90;;;16.80;99.90;;;;;;2100597;28;20427;-67
2023/06/20 02:20:15;;;;;;;14.23;10.07;;;16.80;99.90;;;;;;2103922;28;20277;-69
2023/06/20 02:21:23;;;;;;;10.13;8.23;;;16.90;99.90;;;;;;2082658;28;20199;-68
2023/06/20 02:22:26;;;;;;;10.87;8.80;;;16.90;99.90;;;;;;2086311;28;20457;-67
2023/06/20 02:23:28;;;;;;;10.50;8.10;;;16.90;99.90;;;;;;2081628;28;20470;-67
2023/06/20 02:24:31;;;;;;;10.87;8.87;;;16.90;99.90;;;;;;2086922;28;20507;-67
2023/06/20 02:25:35;;;;;;;11.70;8.53;;;16.80;99.90;;;;;;2102556;28;20508;-67
2023/06/20 02:26:42;;;;;;;14.90;10.40;;;16.80;99.90;;;;;;2103239;28;20452;-67
2023/06/20 02:27:43;;;;;;;13.33;10.17;;;16.80;99.90;;;;;;2084548;28;20516;-67
2023/06/20 02:28:57;;;;;;;17.60;10.20;;;16.90;99.90;;;;;;2094685;28;20472;-67
2023/06/20 02:30:00;;;;;;;12.70;9.43;;;16.90;99.90;;;;;;2102090;28;20447;-69
2023/06/20 02:31:03;;;;;;;11.90;9.47;;;16.70;99.90;;;;;;2095183;28;20426;-67
2023/06/20 02:32:06;;;;;;;14.23;10.37;;;16.60;99.90;;;;;;2103384;28;20420;-68
2023/06/20 02:33:08;;;;;;;16.30;10.80;;;16.60;99.90;;;;;;2095783;28;20950;-67
2023/06/20 02:34:13;;;;;;;15.23;10.67;;;16.60;99.90;;;;;;2094966;28;20807;-67
2023/06/20 02:35:17;;;;;;;14.77;10.07;;;16.60;99.90;;;;;;2093104;28;20960;-67
2023/06/20 02:36:20;;;;;;;19.57;12.73;;;16.50;99.90;;;;;;2104759;28;20467;-67
2023/06/20 02:37:25;;;;;;;12.43;9.77;;;16.50;99.90;;;;;;2104217;28;20855;-67
2023/06/20 02:38:25;;;;;;;15.30;10.50;;;16.50;99.90;;;;;;2096063;28;20475;-67
2023/06/20 02:39:26;;;;;;;12.17;9.37;;;16.40;99.90;;;;;;2091793;28;21165;-67
2023/06/20 02:40:27;;;;;;;12.37;9.77;;;16.40;99.90;;;;;;2095912;28;20701;-67
2023/06/20 02:41:28;;;;;;;14.57;10.07;;;16.40;99.90;;;;;;2094968;28;20230;-67
2023/06/20 02:42:28;;;;;;;14.30;10.40;;;16.40;99.90;;;;;;2095077;28;20722;-67
2023/06/20 02:43:29;;;;;;;12.43;9.63;;;16.40;99.90;;;;;;2087823;28;20224;-67
2023/06/20 02:44:30;;;;;;;12.20;9.47;;;16.50;99.90;;;;;;2096609;28;20219;-67
2023/06/20 02:45:30;;;;;;;15.33;10.53;;;16.40;99.90;;;;;;2096014;28;20223;-67
2023/06/20 02:46:56;;;;;;;13.33;9.93;;;16.50;99.90;;;;;;2095431;28;20719;-68
2023/06/20 02:47:56;;;;;;;11.70;9.23;;;16.50;99.90;;;;;;2093745;28;20223;-69
2023/06/20 02:49:34;;;;;;;14.53;10.40;;;16.30;99.90;;;;;;2095398;28;20464;-67
2023/06/20 02:51:10;;;;;;;9.83;7.77;;;16.40;99.90;;;;;;2093040;28;20219;-67
2023/06/20 02:52:35;;;;;;;8.90;7.70;;;16.30;99.90;;;;;;2061782;28;20463;-67
2023/06/20 02:54:07;;;;;;;11.30;8.30;;;16.30;99.90;;;;;;2099970;28;20211;-67
2023/06/20 02:55:30;;;;;;;10.13;8.43;;;16.30;99.90;;;;;;2101201;28;20448;-66
2023/06/20 02:56:37;;;;;;;9.80;8.23;;;16.20;99.90;;;;;;2092918;28;20491;-66
2023/06/20 02:57:43;;;;;;;14.57;11.07;;;16.40;99.90;;;;;;2092886;28;20540;-66
2023/06/20 02:58:51;;;;;;;12.37;9.10;;;16.40;99.90;;;;;;2094694;28;20511;-67
2023/06/20 03:00:09;;;;;;;10.73;8.07;;;16.40;99.90;;;;;;2087202;28;20491;-67
2023/06/20 03:01:10;;;;;;;15.83;9.93;;;16.40;99.90;;;;;;2098758;28;20475;-67
2023/06/20 03:02:16;;;;;;;15.83;10.53;;;16.40;99.90;;;;;;2093647;28;20463;-67
2023/06/20 03:03:28;;;;;;;9.73;8.33;;;16.30;99.90;;;;;;2089814;28;20472;-67
2023/06/20 03:04:34;;;;;;;12.63;8.63;;;16.40;99.90;;;;;;2077268;28;20516;-67
2023/06/20 03:05:40;;;;;;;11.87;9.23;;;16.40;99.90;;;;;;2085228;28;20469;-66
2023/06/20 03:06:43;;;;;;;10.23;7.70;;;16.40;99.90;;;;;;2093667;28;20464;-67
2023/06/20 03:07:44;;;;;;;9.73;7.83;;;16.30;99.90;;;;;;2097010;28;20468;-67
2023/06/20 03:08:49;;;;;;;9.53;7.90;;;16.30;99.90;;;;;;2103905;28;20532;-67
2023/06/20 03:09:51;;;;;;;9.10;8.00;;;16.30;99.90;;;;;;2102363;28;20470;-67
2023/06/20 03:10:53;;;;;;;10.87;8.33;;;16.30;99.90;;;;;;2110031;28;20463;-67
2023/06/20 03:11:54;;;;;;;8.40;7.20;;;16.20;99.90;;;;;;2104198;28;20494;-67
2023/06/20 03:12:54;;;;;;;10.33;7.50;;;16.20;99.90;;;;;;2093103;28;21147;-67
2023/06/20 03:13:55;;;;;;;10.13;7.50;;;16.20;99.90;;;;;;2095270;28;20207;-66
2023/06/20 03:14:56;;;;;;;7.50;5.63;;;16.20;99.90;;;;;;2104153;28;20788;-67
2023/06/20 03:15:57;;;;;;;7.93;5.97;;;16.20;99.90;;;;;;2101769;28;20450;-69
2023/06/20 03:16:57;;;;;;;8.33;6.57;;;16.20;99.90;;;;;;2104098;28;20588;-67
2023/06/20 03:18:01;;;;;;;10.87;6.37;;;16.20;99.90;;;;;;2103980;28;20214;-68
2023/06/20 03:19:03;;;;;;;6.77;6.07;;;16.20;99.90;;;;;;2098323;28;20251;-68
2023/06/20 03:20:09;;;;;;;9.20;6.77;;;16.20;99.90;;;;;;2095076;28;20489;-68
2023/06/20 03:21:09;;;;;;;7.77;6.40;;;16.20;99.90;;;;;;2096989;28;20519;-66
2023/06/20 03:22:10;;;;;;;8.27;6.93;;;16.20;99.90;;;;;;2087943;28;20805;-67
2023/06/20 03:23:12;;;;;;;8.50;7.27;;;16.20;99.90;;;;;;2087808;28;20200;-66
2023/06/20 03:24:12;;;;;;;7.67;6.33;;;16.10;99.90;;;;;;2104419;28;20194;-67
2023/06/20 03:25:13;;;;;;;9.77;6.50;;;16.10;99.90;;;;;;2095430;28;20484;-67
2023/06/20 03:26:14;;;;;;;8.00;7.10;;;16.10;99.90;;;;;;2096108;28;20184;-67
2023/06/20 03:27:15;;;;;;;9.03;6.43;;;16.10;99.90;;;;;;2104376;28;20207;-67
2023/06/20 03:28:15;;;;;;;7.53;5.87;;;16.10;99.90;;;;;;2105106;28;20244;-66
2023/06/20 03:29:16;;;;;;;7.07;5.80;;;16.00;99.90;;;;;;2105270;27;21749;-67
2023/06/20 03:30:17;;;;;;;6.90;5.50;;;16.00;99.90;;;;;;2104409;28;20673;-66
2023/06/20 03:31:18;;;;;;;7.80;7.00;;;16.00;99.90;;;;;;2095499;28;20234;-66
2023/06/20 03:32:18;;;;;;;7.13;5.93;;;16.00;99.90;;;;;;2095702;28;20247;-67
2023/06/20 03:33:19;;;;;;;8.37;6.50;;;15.90;99.90;;;;;;2092778;28;20227;-66
2023/06/20 03:34:20;;;;;;;8.27;6.33;;;16.00;99.90;;;;;;2087635;28;20353;-66
2023/06/20 03:35:21;;;;;;;6.90;5.33;;;16.00;99.90;;;;;;2092439;28;20995;-67
2023/06/20 03:36:22;;;;;;;8.17;5.93;;;16.00;99.90;;;;;;2095640;28;20303;-66
2023/06/20 03:37:22;;;;;;;8.20;5.90;;;16.00;99.90;;;;;;2087032;28;20230;-67
2023/06/20 03:38:23;;;;;;;7.73;6.20;;;16.00;99.90;;;;;;2083068;28;20254;-66
2023/06/20 03:39:24;;;;;;;9.33;6.87;;;15.90;99.90;;;;;;2104457;28;20708;-67
2023/06/20 03:40:24;;;;;;;7.97;5.73;;;15.90;99.90;;;;;;2103906;28;20246;-67
2023/06/20 03:41:25;;;;;;;8.13;6.13;;;15.90;99.90;;;;;;2104158;28;20223;-67
2023/06/20 03:42:26;;;;;;;9.40;6.27;;;16.00;99.90;;;;;;2095976;28;20283;-67
2023/06/20 03:43:26;;;;;;;10.50;7.80;;;16.10;99.90;;;;;;2087746;28;20232;-67
2023/06/20 03:44:28;;;;;;;11.00;7.73;;;16.20;99.90;;;;;;2102333;28;20241;-67
2023/06/20 03:45:28;;;;;;;8.83;7.13;;;16.20;99.90;;;;;;2101621;28;20218;-67
2023/06/20 03:46:29;;;;;;;10.00;7.47;;;16.30;99.90;;;;;;2099798;28;20464;-67
2023/06/20 03:47:30;;;;;;;11.00;7.20;;;16.40;99.90;;;;;;2103994;28;20309;-67
2023/06/20 03:48:31;;;;;;;8.53;7.03;;;16.40;99.90;;;;;;2095389;28;20655;-67
2023/06/20 03:49:31;;;;;;;10.80;8.27;;;16.40;99.90;;;;;;2100458;28;20468;-67
2023/06/20 03:50:32;;;;;;;11.47;8.57;;;16.50;99.90;;;;;;2099904;28;20237;-67
2023/06/20 03:51:33;;;;;;;12.03;8.10;;;16.40;99.90;;;;;;2103021;28;20226;-67
2023/06/20 03:52:34;;;;;;;10.80;8.13;;;16.50;99.90;;;;;;2097019;28;20468;-67
2023/06/20 03:53:36;;;;;;;10.23;8.10;;;16.40;99.90;;;;;;2095643;28;20246;-67
2023/06/20 03:54:39;;;;;;;11.47;7.83;;;16.30;99.90;;;;;;2103806;28;20218;-66
2023/06/20 03:55:41;;;;;;;9.73;7.60;;;16.30;99.90;;;;;;2100394;28;20475;-66
2023/06/20 03:56:41;;;;;;;9.37;7.87;;;16.30;99.90;;;;;;2099651;28;20448;-67
2023/06/20 03:57:42;;;;;;;10.93;8.00;;;16.30;99.90;;;;;;2091085;28;20467;-67
2023/06/20 03:58:43;;;;;;;12.97;7.60;;;16.30;99.90;;;;;;2099873;28;20703;-67
2023/06/20 03:59:43;;;;;;;9.43;7.43;;;16.30;99.90;;;;;;2099948;28;20218;-67
2023/06/20 04:00:46;;;;;;;10.73;8.23;;;16.30;99.90;;;;;;2099660;28;20245;-67
2023/06/20 04:01:47;;;;;;;9.20;7.07;;;16.30;99.90;;;;;;2099490;28;20223;-67
2023/06/20 04:02:49;;;;;;;10.93;7.93;;;16.10;99.90;;;;;;2101085;28;20823;-67
2023/06/20 04:03:54;;;;;;;10.73;7.87;;;16.10;99.90;;;;;;2104326;28;20272;-67
2023/06/20 04:04:56;;;;;;;10.43;7.43;;;16.10;99.90;;;;;;2092862;28;20555;-67
2023/06/20 04:06:00;;;;;;;11.53;8.23;;;16.00;99.90;;;;;;2091039;28;21084;-67
2023/06/20 04:07:01;;;;;;;8.50;7.27;;;16.00;99.90;;;;;;2097852;28;20456;-68
2023/06/20 04:08:02;;;;;;;11.30;7.97;;;16.00;99.90;;;;;;2099633;28;21111;-67
2023/06/20 04:09:04;;;;;;;9.97;8.30;;;16.00;99.90;;;;;;2098905;28;20211;-67
2023/06/20 04:10:05;;;;;;;10.20;7.47;;;16.10;99.90;;;;;;2099447;28;20629;-67
2023/06/20 04:11:06;;;;;;;10.97;7.77;;;16.00;99.90;;;;;;2098516;28;20424;-67
2023/06/20 04:12:07;;;;;;;11.80;8.13;;;16.10;99.90;;;;;;2103763;28;20416;-67
2023/06/20 04:13:07;;;;;;;10.97;7.57;;;16.10;99.90;;;;;;2103523;28;20265;-67
2023/06/20 04:14:08;;;;;;;8.93;7.10;;;16.10;99.90;;;;;;2095022;28;20427;-66
2023/06/20 04:15:10;;;;;;;9.17;7.97;;;16.00;99.90;;;;;;2095571;28;20258;-66
2023/06/20 04:16:11;;;;;;;9.00;7.07;;;16.00;99.90;;;;;;2102747;28;20190;-66
2023/06/20 04:17:11;;;;;;;10.73;8.37;;;15.90;99.90;;;;;;2094563;28;21036;-67
2023/06/20 04:18:14;;;;;;;8.90;8.00;;;15.90;99.90;;;;;;2094947;28;20207;-68
2023/06/20 04:19:15;;;;;;;10.23;8.33;;;15.90;99.90;;;;;;2099474;28;20195;-67
2023/06/20 04:20:16;;;;;;;10.07;7.97;;;15.90;99.90;;;;;;2086910;28;20416;-67
2023/06/20 04:21:17;;;;;;;11.60;7.93;;;15.90;99.90;;;;;;2103465;28;20467;-67
2023/06/20 04:22:18;;;;;;;8.70;7.43;;;16.00;99.90;;;;;;2103509;28;20467;-67
2023/06/20 04:23:18;;;;;;;13.23;8.20;;;16.10;99.90;;;;;;2096228;28;21206;-69
2023/06/20 04:24:22;;;;;;;11.20;9.10;;;16.00;99.90;;;;;;2095714;28;20596;-68
2023/06/20 04:25:22;;;;;;;11.00;8.60;;;16.00;99.90;;;;;;2105196;28;20285;-68
2023/06/20 04:26:24;;;;;;;10.27;8.33;;;16.00;99.90;;;;;;2105000;28;20523;-68
2023/06/20 04:27:24;;;;;;;12.37;8.87;;;16.10;99.90;;;;;;2095958;28;20702;-68
2023/06/20 04:28:26;;;;;;;11.13;8.23;;;16.10;99.90;;;;;;2095034;28;21165;-66
2023/06/20 04:29:29;;;;;;;9.13;7.47;;;16.10;99.90;;;;;;2103180;28;20558;-67
2023/06/20 04:30:31;;;;;;;11.17;8.63;;;16.10;99.90;;;;;;2097460;28;20478;-66
2023/06/20 04:31:32;;;;;;;10.47;7.83;;;16.00;99.90;;;;;;2100028;28;20466;-66
2023/06/20 04:32:37;;;;;;;10.97;7.60;;;16.00;99.90;;;;;;2097844;28;20617;-66
2023/06/20 04:33:43;;;;;;;8.63;7.47;;;16.00;99.90;;;;;;2103486;28;20655;-66
2023/06/20 04:34:44;;;;;;;9.30;8.00;;;16.10;99.90;;;;;;2103161;28;20937;-66
2023/06/20 04:35:44;;;;;;;11.03;7.80;;;16.00;99.90;;;;;;2102220;28;20523;-66
2023/06/20 04:36:45;;;;;;;11.47;7.93;;;16.00;99.90;;;;;;2105208;28;20222;-67
2023/06/20 04:37:51;;;;;;;10.73;8.40;;;16.00;99.90;;;;;;2103333;28;20221;-66
2023/06/20 04:38:51;;;;;;;10.00;8.10;;;16.10;99.90;;;;;;2103648;28;20291;-66
2023/06/20 04:39:52;;;;;;;11.53;8.70;;;16.10;99.90;;;;;;2103262;28;20542;-66
2023/06/20 04:40:53;;;;;;;9.57;8.30;;;16.10;99.90;;;;;;2103233;28;20673;-66
2023/06/20 04:41:53;;;;;;;12.17;8.80;;;16.10;99.90;;;;;;2096738;28;20231;-66
2023/06/20 04:42:54;;;;;;;9.03;7.77;;;16.10;99.90;;;;;;2098463;28;20282;-66
2023/06/20 04:43:55;;;;;;;10.27;7.80;;;16.20;99.90;;;;;;2106198;28;20223;-67
2023/06/20 04:44:56;;;;;;;11.50;8.20;;;16.20;99.90;;;;;;2104666;28;20249;-67
2023/06/20 04:45:57;;;;;;;10.73;8.83;;;16.30;99.90;;;;;;2102536;28;20504;-68
2023/06/20 04:46:57;;;;;;;12.27;8.73;;;16.40;99.90;;;;;;2096130;28;20191;-67
2023/06/20 04:47:58;;;;;;;15.60;8.93;;;16.50;99.90;;;;;;2094124;28;20251;-68
2023/06/20 04:49:00;;;;;;;13.80;8.80;;;16.40;99.90;;;;;;2094623;28;20230;-67
2023/06/20 04:50:03;;;;;;;12.10;8.63;;;16.40;99.90;;;;;;2096764;28;20183;-68
2023/06/20 04:51:08;;;;;;;14.33;9.83;;;16.40;99.90;;;;;;2104782;28;20414;-67
2023/06/20 04:52:08;;;;;;;15.57;10.90;;;16.40;99.90;;;;;;2094888;28;20428;-67
2023/06/20 04:53:09;;;;;;;13.03;9.90;;;16.40;99.90;;;;;;2096282;28;20424;-66
2023/06/20 04:54:10;;;;;;;13.57;9.70;;;16.40;99.90;;;;;;2105568;28;20187;-66
2023/06/20 04:55:10;;;;;;;10.60;8.63;;;16.40;99.90;;;;;;2098564;28;20183;-66
2023/06/20 04:56:16;;;;;;;12.00;8.40;;;16.40;99.90;;;;;;2105624;28;20232;-67
2023/06/20 04:57:17;;;;;;;13.03;9.47;;;16.40;99.90;;;;;;2104320;28;20262;-67
2023/06/20 04:58:18;;;;;;;12.80;9.93;;;16.30;99.90;;;;;;2098870;28;20464;-67
2023/06/20 04:59:19;;;;;;;9.97;8.77;;;16.30;99.90;;;;;;2105577;28;20539;-68
2023/06/20 05:00:20;;;;;;;10.10;8.87;;;16.40;99.90;;;;;;2105139;28;20463;-67
2023/06/20 05:01:21;;;;;;;11.90;9.23;;;16.40;99.90;;;;;;2093510;28;20473;-67
2023/06/20 05:02:26;;;;;;;10.67;8.37;;;16.50;99.90;;;;;;2093431;28;20480;-67
2023/06/20 05:03:29;;;;;;;11.67;8.70;;;16.60;99.90;;;;;;2104522;28;20475;-67
2023/06/20 05:04:31;;;;;;;14.20;9.90;;;16.60;99.90;;;;;;2104153;28;20856;-68
2023/06/20 05:05:32;;;;;;;14.90;9.67;;;16.60;99.90;;;;;;2102335;28;20500;-67
2023/06/20 05:06:33;;;;;;;13.43;9.30;;;16.50;99.90;;;;;;2104677;28;20483;-67
2023/06/20 05:07:34;;;;;;;10.87;8.63;;;16.60;99.90;;;;;;2104522;28;20471;-67
2023/06/20 05:08:35;;;;;;;11.43;9.37;;;16.60;99.90;;;;;;2096122;28;20230;-67
2023/06/20 05:09:36;;;;;;;9.50;8.50;;;16.60;99.90;;;;;;2096376;28;20219;-67
2023/06/20 05:10:37;;;;;;;14.57;9.60;;;16.60;99.90;;;;;;2105549;28;20834;-67
2023/06/20 05:11:38;;;;;;;12.63;9.53;;;16.60;99.90;;;;;;2109666;28;20466;-68
2023/06/20 05:12:39;;;;;;;12.67;9.33;;;16.70;99.90;;;;;;2103469;28;20226;-68
2023/06/20 05:13:39;;;;;;;13.43;10.50;;;16.70;99.90;;;;;;2101187;28;20977;-68
2023/06/20 05:14:40;;;;;;;11.63;10.10;;;16.70;99.90;;;;;;2109213;28;20213;-67
2023/06/20 05:15:41;;;;;;;11.87;9.37;;;16.80;99.90;;;;;;2104010;28;20219;-68
2023/06/20 05:16:41;;;;;;;9.67;8.60;;;16.80;99.90;;;;;;2088479;28;20220;-68
2023/06/20 05:17:42;;;;;;;17.03;10.70;;;16.80;99.90;;;;;;2097301;28;20223;-68
2023/06/20 05:18:46;;;;;;;15.60;10.73;;;16.80;99.90;;;;;;2102167;28;20609;-68
2023/06/20 05:19:47;;;;;;;11.97;9.23;;;16.80;99.90;;;;;;2105008;28;20223;-68
2023/06/20 05:20:48;;;;;;;11.50;9.60;;;16.80;99.90;;;;;;2096767;28;20468;-68
2023/06/20 05:21:49;;;;;;;11.17;9.57;;;16.80;99.90;;;;;;2104751;28;20558;-68
2023/06/20 05:22:49;;;;;;;13.60;10.63;;;16.80;99.90;;;;;;2112858;28;20481;-68
2023/06/20 05:23:50;;;;;;;12.10;9.80;;;16.80;99.90;;;;;;2112334;28;20218;-68
2023/06/20 05:24:51;;;;;;;12.13;9.53;;;16.80;99.90;;;;;;2101290;28;20309;-68
2023/06/20 05:25:51;;;;;;;11.23;9.60;;;16.70;99.90;;;;;;2105148;28;20243;-68
2023/06/20 05:26:52;;;;;;;13.03;9.30;;;16.80;99.90;;;;;;2103661;28;20310;-68
2023/06/20 05:27:53;;;;;;;14.47;10.00;;;16.80;99.90;;;;;;2101593;28;21132;-68
2023/06/20 05:28:54;;;;;;;11.00;9.17;;;16.80;99.90;;;;;;2096343;28;20227;-68